sensor_id;sensor_type;location;lat;lon;timestamp;P1;durP1;ratioP1;P2;durP2;ratioP2
7150;SDS011;3617;48.836;9.172;2023-11-19T00:00:42;1.87;;;1.33;;
7150;SDS011;3617;48.836;9.172;2023-11-19T00:03:08;1.53;;;1.37;;
7150;SDS011;3617;48.836;9.172;2023-11-19T00:05:35;2.10;;;1.40;;
7150;SDS011;3617;48.836;9.172;2023-11-19T00:08:02;1.67;;;1.30;;
7150;SDS011;3617;48.836;9.172;2023-11-19T00:10:28;1.43;;;1.33;;
7150;SDS011;3617;48.836;9.172;2023-11-19T00:12:54;1.37;;;1.27;;
7150;SDS011;3617;48.836;9.172;2023-11-19T00:15:21;1.60;;;1.43;;
7150;SDS011;3617;48.836;9.172;2023-11-19T00:17:49;1.60;;;1.50;;
7150;SDS011;3617;48.836;9.172;2023-11-19T00:20:18;1.70;;;1.30;;
7150;SDS011;3617;48.836;9.172;2023-11-19T00:22:44;1.30;;;1.20;;
7150;SDS011;3617;48.836;9.172;2023-11-19T00:25:13;1.00;;;1.00;;
7150;SDS011;3617;48.836;9.172;2023-11-19T00:27:39;1.47;;;1.30;;
7150;SDS011;3617;48.836;9.172;2023-11-19T00:30:06;1.73;;;1.50;;
7150;SDS011;3617;48.836;9.172;2023-11-19T00:32:33;1.10;;;1.10;;
7150;SDS011;3617;48.836;9.172;2023-11-19T00:34:59;1.10;;;1.00;;
7150;SDS011;3617;48.836;9.172;2023-11-19T00:37:25;1.20;;;1.10;;
7150;SDS011;3617;48.836;9.172;2023-11-19T00:39:51;0.90;;;0.90;;
7150;SDS011;3617;48.836;9.172;2023-11-19T00:42:17;1.27;;;1.10;;
7150;SDS011;3617;48.836;9.172;2023-11-19T00:44:43;1.63;;;1.30;;
7150;SDS011;3617;48.836;9.172;2023-11-19T00:47:10;1.23;;;1.00;;
7150;SDS011;3617;48.836;9.172;2023-11-19T00:49:36;0.93;;;0.93;;
7150;SDS011;3617;48.836;9.172;2023-11-19T00:52:02;0.73;;;0.70;;
7150;SDS011;3617;48.836;9.172;2023-11-19T00:54:28;0.97;;;0.87;;
7150;SDS011;3617;48.836;9.172;2023-11-19T00:56:54;1.30;;;1.20;;
7150;SDS011;3617;48.836;9.172;2023-11-19T00:59:21;1.43;;;1.20;;
7150;SDS011;3617;48.836;9.172;2023-11-19T01:01:47;0.80;;;0.80;;
7150;SDS011;3617;48.836;9.172;2023-11-19T01:04:13;0.80;;;0.80;;
7150;SDS011;3617;48.836;9.172;2023-11-19T01:06:39;1.13;;;0.90;;
7150;SDS011;3617;48.836;9.172;2023-11-19T01:09:07;1.43;;;1.10;;
7150;SDS011;3617;48.836;9.172;2023-11-19T01:11:34;0.80;;;0.80;;
7150;SDS011;3617;48.836;9.172;2023-11-19T01:14:00;0.80;;;0.80;;
7150;SDS011;3617;48.836;9.172;2023-11-19T01:16:26;0.60;;;0.60;;
7150;SDS011;3617;48.836;9.172;2023-11-19T01:18:52;0.70;;;0.70;;
7150;SDS011;3617;48.836;9.172;2023-11-19T01:21:18;0.90;;;0.70;;
7150;SDS011;3617;48.836;9.172;2023-11-19T01:23:44;0.70;;;0.70;;
7150;SDS011;3617;48.836;9.172;2023-11-19T01:26:11;0.80;;;0.80;;
7150;SDS011;3617;48.836;9.172;2023-11-19T01:28:37;0.70;;;0.70;;
7150;SDS011;3617;48.836;9.172;2023-11-19T01:31:10;0.80;;;0.80;;
7150;SDS011;3617;48.836;9.172;2023-11-19T01:33:36;0.80;;;0.80;;
7150;SDS011;3617;48.836;9.172;2023-11-19T01:36:02;0.73;;;0.73;;
7150;SDS011;3617;48.836;9.172;2023-11-19T01:38:29;0.70;;;0.70;;
7150;SDS011;3617;48.836;9.172;2023-11-19T01:40:56;0.60;;;0.60;;
7150;SDS011;3617;48.836;9.172;2023-11-19T01:43:32;0.63;;;0.63;;
7150;SDS011;3617;48.836;9.172;2023-11-19T01:45:59;0.60;;;0.60;;
7150;SDS011;3617;48.836;9.172;2023-11-19T01:48:25;0.60;;;0.60;;
7150;SDS011;3617;48.836;9.172;2023-11-19T01:50:51;1.00;;;0.90;;
7150;SDS011;3617;48.836;9.172;2023-11-19T01:53:17;0.80;;;0.80;;
7150;SDS011;3617;48.836;9.172;2023-11-19T01:55:44;0.80;;;0.80;;
7150;SDS011;3617;48.836;9.172;2023-11-19T01:58:10;0.70;;;0.70;;
7150;SDS011;3617;48.836;9.172;2023-11-19T02:00:37;1.07;;;0.80;;
7150;SDS011;3617;48.836;9.172;2023-11-19T02:03:03;0.90;;;0.90;;
7150;SDS011;3617;48.836;9.172;2023-11-19T02:05:31;0.80;;;0.80;;
7150;SDS011;3617;48.836;9.172;2023-11-19T02:07:58;0.80;;;0.80;;
7150;SDS011;3617;48.836;9.172;2023-11-19T02:10:24;0.60;;;0.60;;
7150;SDS011;3617;48.836;9.172;2023-11-19T02:12:50;0.57;;;0.57;;
7150;SDS011;3617;48.836;9.172;2023-11-19T02:15:16;0.80;;;0.80;;
7150;SDS011;3617;48.836;9.172;2023-11-19T02:17:44;1.53;;;0.67;;
7150;SDS011;3617;48.836;9.172;2023-11-19T02:20:10;0.60;;;0.60;;
7150;SDS011;3617;48.836;9.172;2023-11-19T02:22:39;0.50;;;0.50;;
7150;SDS011;3617;48.836;9.172;2023-11-19T02:25:15;0.63;;;0.50;;
7150;SDS011;3617;48.836;9.172;2023-11-19T02:27:44;0.60;;;0.60;;
7150;SDS011;3617;48.836;9.172;2023-11-19T02:30:11;0.60;;;0.60;;
7150;SDS011;3617;48.836;9.172;2023-11-19T02:32:41;0.77;;;0.77;;
7150;SDS011;3617;48.836;9.172;2023-11-19T02:35:07;0.87;;;0.70;;
7150;SDS011;3617;48.836;9.172;2023-11-19T02:37:38;0.60;;;0.60;;
7150;SDS011;3617;48.836;9.172;2023-11-19T02:40:04;0.60;;;0.60;;
7150;SDS011;3617;48.836;9.172;2023-11-19T02:42:33;0.60;;;0.60;;
7150;SDS011;3617;48.836;9.172;2023-11-19T02:44:59;0.67;;;0.67;;
7150;SDS011;3617;48.836;9.172;2023-11-19T02:47:25;0.70;;;0.70;;
7150;SDS011;3617;48.836;9.172;2023-11-19T02:49:52;0.50;;;0.50;;
7150;SDS011;3617;48.836;9.172;2023-11-19T02:52:18;0.60;;;0.60;;
7150;SDS011;3617;48.836;9.172;2023-11-19T02:54:44;0.50;;;0.50;;
7150;SDS011;3617;48.836;9.172;2023-11-19T02:57:10;0.60;;;0.60;;
7150;SDS011;3617;48.836;9.172;2023-11-19T02:59:38;0.63;;;0.63;;
7150;SDS011;3617;48.836;9.172;2023-11-19T03:02:06;0.60;;;0.60;;
7150;SDS011;3617;48.836;9.172;2023-11-19T03:04:36;0.60;;;0.60;;
7150;SDS011;3617;48.836;9.172;2023-11-19T03:07:04;0.60;;;0.60;;
7150;SDS011;3617;48.836;9.172;2023-11-19T03:09:30;1.43;;;0.60;;
7150;SDS011;3617;48.836;9.172;2023-11-19T03:11:56;0.60;;;0.60;;
7150;SDS011;3617;48.836;9.172;2023-11-19T03:14:22;0.70;;;0.70;;
7150;SDS011;3617;48.836;9.172;2023-11-19T03:16:48;0.60;;;0.60;;
7150;SDS011;3617;48.836;9.172;2023-11-19T03:19:14;0.87;;;0.70;;
7150;SDS011;3617;48.836;9.172;2023-11-19T03:21:40;0.80;;;0.80;;
7150;SDS011;3617;48.836;9.172;2023-11-19T03:24:06;0.70;;;0.70;;
7150;SDS011;3617;48.836;9.172;2023-11-19T03:26:33;1.47;;;0.90;;
7150;SDS011;3617;48.836;9.172;2023-11-19T03:28:59;0.80;;;0.80;;
7150;SDS011;3617;48.836;9.172;2023-11-19T03:31:26;2.33;;;1.40;;
7150;SDS011;3617;48.836;9.172;2023-11-19T03:33:52;1.90;;;1.40;;
7150;SDS011;3617;48.836;9.172;2023-11-19T03:36:18;2.27;;;1.77;;
7150;SDS011;3617;48.836;9.172;2023-11-19T03:38:44;2.47;;;1.70;;
7150;SDS011;3617;48.836;9.172;2023-11-19T03:41:13;2.27;;;1.60;;
7150;SDS011;3617;48.836;9.172;2023-11-19T03:43:40;2.17;;;1.53;;
7150;SDS011;3617;48.836;9.172;2023-11-19T03:49:01;1.60;;;1.50;;
7150;SDS011;3617;48.836;9.172;2023-11-19T03:51:29;1.90;;;1.60;;
7150;SDS011;3617;48.836;9.172;2023-11-19T03:53:55;1.60;;;1.50;;
7150;SDS011;3617;48.836;9.172;2023-11-19T03:56:20;2.20;;;1.70;;
7150;SDS011;3617;48.836;9.172;2023-11-19T03:58:46;2.07;;;1.67;;
7150;SDS011;3617;48.836;9.172;2023-11-19T04:01:12;1.93;;;1.70;;
7150;SDS011;3617;48.836;9.172;2023-11-19T04:03:38;2.00;;;1.80;;
7150;SDS011;3617;48.836;9.172;2023-11-19T04:06:04;3.47;;;1.60;;
7150;SDS011;3617;48.836;9.172;2023-11-19T04:08:30;2.60;;;1.77;;
7150;SDS011;3617;48.836;9.172;2023-11-19T04:10:56;2.20;;;1.70;;
7150;SDS011;3617;48.836;9.172;2023-11-19T04:13:22;2.00;;;1.47;;
7150;SDS011;3617;48.836;9.172;2023-11-19T04:15:49;2.03;;;1.50;;
7150;SDS011;3617;48.836;9.172;2023-11-19T04:18:15;3.53;;;2.03;;
7150;SDS011;3617;48.836;9.172;2023-11-19T04:20:41;1.97;;;1.80;;
7150;SDS011;3617;48.836;9.172;2023-11-19T04:23:08;2.33;;;1.73;;
7150;SDS011;3617;48.836;9.172;2023-11-19T04:25:34;1.83;;;1.40;;
7150;SDS011;3617;48.836;9.172;2023-11-19T04:28:01;2.73;;;1.87;;
7150;SDS011;3617;48.836;9.172;2023-11-19T04:30:27;1.30;;;1.20;;
7150;SDS011;3617;48.836;9.172;2023-11-19T04:32:53;1.87;;;1.57;;
7150;SDS011;3617;48.836;9.172;2023-11-19T04:35:19;1.93;;;1.30;;
7150;SDS011;3617;48.836;9.172;2023-11-19T04:37:46;1.43;;;1.33;;
7150;SDS011;3617;48.836;9.172;2023-11-19T04:40:12;1.17;;;1.10;;
7150;SDS011;3617;48.836;9.172;2023-11-19T04:42:38;1.93;;;1.20;;
7150;SDS011;3617;48.836;9.172;2023-11-19T04:45:05;1.30;;;1.20;;
7150;SDS011;3617;48.836;9.172;2023-11-19T04:47:32;1.23;;;0.90;;
7150;SDS011;3617;48.836;9.172;2023-11-19T04:49:58;1.50;;;1.37;;
7150;SDS011;3617;48.836;9.172;2023-11-19T04:52:24;1.00;;;0.90;;
7150;SDS011;3617;48.836;9.172;2023-11-19T04:54:50;1.53;;;1.37;;
7150;SDS011;3617;48.836;9.172;2023-11-19T04:57:16;1.53;;;1.17;;
7150;SDS011;3617;48.836;9.172;2023-11-19T04:59:43;1.23;;;1.13;;
7150;SDS011;3617;48.836;9.172;2023-11-19T05:02:09;1.30;;;1.13;;
7150;SDS011;3617;48.836;9.172;2023-11-19T05:04:35;1.50;;;1.40;;
7150;SDS011;3617;48.836;9.172;2023-11-19T05:07:02;0.70;;;0.70;;
7150;SDS011;3617;48.836;9.172;2023-11-19T05:09:30;0.97;;;0.80;;
7150;SDS011;3617;48.836;9.172;2023-11-19T05:11:56;0.63;;;0.63;;
7150;SDS011;3617;48.836;9.172;2023-11-19T05:14:22;0.50;;;0.50;;
7150;SDS011;3617;48.836;9.172;2023-11-19T05:16:49;0.60;;;0.60;;
7150;SDS011;3617;48.836;9.172;2023-11-19T05:19:15;0.70;;;0.70;;
7150;SDS011;3617;48.836;9.172;2023-11-19T05:21:42;1.83;;;0.50;;
7150;SDS011;3617;48.836;9.172;2023-11-19T05:24:08;0.70;;;0.70;;
7150;SDS011;3617;48.836;9.172;2023-11-19T05:26:34;0.60;;;0.60;;
7150;SDS011;3617;48.836;9.172;2023-11-19T05:29:00;0.60;;;0.60;;
7150;SDS011;3617;48.836;9.172;2023-11-19T05:31:26;0.60;;;0.60;;
7150;SDS011;3617;48.836;9.172;2023-11-19T05:33:52;0.60;;;0.60;;
7150;SDS011;3617;48.836;9.172;2023-11-19T05:36:18;0.50;;;0.50;;
7150;SDS011;3617;48.836;9.172;2023-11-19T05:38:44;0.50;;;0.50;;
7150;SDS011;3617;48.836;9.172;2023-11-19T05:41:10;0.60;;;0.60;;
7150;SDS011;3617;48.836;9.172;2023-11-19T05:43:36;0.50;;;0.50;;
7150;SDS011;3617;48.836;9.172;2023-11-19T05:46:02;0.50;;;0.50;;
7150;SDS011;3617;48.836;9.172;2023-11-19T05:48:28;0.60;;;0.60;;
7150;SDS011;3617;48.836;9.172;2023-11-19T05:50:54;0.50;;;0.50;;
7150;SDS011;3617;48.836;9.172;2023-11-19T05:53:20;0.70;;;0.70;;
7150;SDS011;3617;48.836;9.172;2023-11-19T05:55:47;0.63;;;0.63;;
7150;SDS011;3617;48.836;9.172;2023-11-19T05:58:23;0.50;;;0.50;;
7150;SDS011;3617;48.836;9.172;2023-11-19T06:00:49;0.50;;;0.50;;
7150;SDS011;3617;48.836;9.172;2023-11-19T06:03:15;0.60;;;0.60;;
7150;SDS011;3617;48.836;9.172;2023-11-19T06:05:44;0.63;;;0.63;;
7150;SDS011;3617;48.836;9.172;2023-11-19T06:08:10;0.50;;;0.50;;
7150;SDS011;3617;48.836;9.172;2023-11-19T06:10:38;0.50;;;0.50;;
7150;SDS011;3617;48.836;9.172;2023-11-19T06:13:04;0.93;;;0.60;;
7150;SDS011;3617;48.836;9.172;2023-11-19T06:15:30;0.60;;;0.60;;
7150;SDS011;3617;48.836;9.172;2023-11-19T06:17:58;0.50;;;0.50;;
7150;SDS011;3617;48.836;9.172;2023-11-19T06:20:26;0.57;;;0.57;;
7150;SDS011;3617;48.836;9.172;2023-11-19T06:22:56;0.70;;;0.70;;
7150;SDS011;3617;48.836;9.172;2023-11-19T06:25:23;0.70;;;0.70;;
7150;SDS011;3617;48.836;9.172;2023-11-19T06:27:49;0.60;;;0.60;;
7150;SDS011;3617;48.836;9.172;2023-11-19T06:30:15;0.60;;;0.60;;
7150;SDS011;3617;48.836;9.172;2023-11-19T06:32:41;0.60;;;0.60;;
7150;SDS011;3617;48.836;9.172;2023-11-19T06:35:07;0.70;;;0.70;;
7150;SDS011;3617;48.836;9.172;2023-11-19T06:37:34;0.53;;;0.53;;
7150;SDS011;3617;48.836;9.172;2023-11-19T06:40:00;0.50;;;0.50;;
7150;SDS011;3617;48.836;9.172;2023-11-19T06:42:27;0.80;;;0.70;;
7150;SDS011;3617;48.836;9.172;2023-11-19T06:44:53;0.70;;;0.70;;
7150;SDS011;3617;48.836;9.172;2023-11-19T06:47:19;0.60;;;0.60;;
7150;SDS011;3617;48.836;9.172;2023-11-19T06:49:45;0.50;;;0.50;;
7150;SDS011;3617;48.836;9.172;2023-11-19T06:52:11;0.60;;;0.60;;
7150;SDS011;3617;48.836;9.172;2023-11-19T06:54:38;0.60;;;0.60;;
7150;SDS011;3617;48.836;9.172;2023-11-19T06:57:04;0.90;;;0.80;;
7150;SDS011;3617;48.836;9.172;2023-11-19T06:59:30;0.70;;;0.70;;
7150;SDS011;3617;48.836;9.172;2023-11-19T07:01:56;0.60;;;0.60;;
7150;SDS011;3617;48.836;9.172;2023-11-19T07:04:22;0.70;;;0.70;;
7150;SDS011;3617;48.836;9.172;2023-11-19T07:06:48;0.70;;;0.70;;
7150;SDS011;3617;48.836;9.172;2023-11-19T07:09:14;0.60;;;0.60;;
7150;SDS011;3617;48.836;9.172;2023-11-19T07:11:40;0.60;;;0.60;;
7150;SDS011;3617;48.836;9.172;2023-11-19T07:14:07;0.80;;;0.80;;
7150;SDS011;3617;48.836;9.172;2023-11-19T07:16:33;0.50;;;0.50;;
7150;SDS011;3617;48.836;9.172;2023-11-19T07:19:00;0.70;;;0.70;;
7150;SDS011;3617;48.836;9.172;2023-11-19T07:21:26;0.50;;;0.50;;
7150;SDS011;3617;48.836;9.172;2023-11-19T07:23:55;0.60;;;0.60;;
7150;SDS011;3617;48.836;9.172;2023-11-19T07:26:21;0.73;;;0.60;;
7150;SDS011;3617;48.836;9.172;2023-11-19T07:28:49;0.60;;;0.60;;
7150;SDS011;3617;48.836;9.172;2023-11-19T07:31:15;0.60;;;0.60;;
7150;SDS011;3617;48.836;9.172;2023-11-19T07:33:43;2.93;;;0.60;;
7150;SDS011;3617;48.836;9.172;2023-11-19T07:36:09;0.60;;;0.60;;
7150;SDS011;3617;48.836;9.172;2023-11-19T07:38:35;0.60;;;0.60;;
7150;SDS011;3617;48.836;9.172;2023-11-19T07:41:07;0.70;;;0.70;;
7150;SDS011;3617;48.836;9.172;2023-11-19T07:43:38;0.60;;;0.60;;
7150;SDS011;3617;48.836;9.172;2023-11-19T07:46:05;0.70;;;0.70;;
7150;SDS011;3617;48.836;9.172;2023-11-19T07:48:32;0.67;;;0.60;;
7150;SDS011;3617;48.836;9.172;2023-11-19T07:50:59;0.60;;;0.60;;
7150;SDS011;3617;48.836;9.172;2023-11-19T07:53:26;0.63;;;0.57;;
7150;SDS011;3617;48.836;9.172;2023-11-19T07:55:52;1.00;;;0.87;;
7150;SDS011;3617;48.836;9.172;2023-11-19T07:58:18;0.63;;;0.63;;
7150;SDS011;3617;48.836;9.172;2023-11-19T08:00:44;0.60;;;0.60;;
7150;SDS011;3617;48.836;9.172;2023-11-19T08:03:11;0.53;;;0.53;;
7150;SDS011;3617;48.836;9.172;2023-11-19T08:05:37;0.60;;;0.60;;
7150;SDS011;3617;48.836;9.172;2023-11-19T08:08:03;0.60;;;0.60;;
7150;SDS011;3617;48.836;9.172;2023-11-19T08:10:28;0.60;;;0.60;;
7150;SDS011;3617;48.836;9.172;2023-11-19T08:12:54;0.60;;;0.60;;
7150;SDS011;3617;48.836;9.172;2023-11-19T08:15:20;0.63;;;0.63;;
7150;SDS011;3617;48.836;9.172;2023-11-19T08:17:46;0.60;;;0.60;;
7150;SDS011;3617;48.836;9.172;2023-11-19T08:20:13;0.70;;;0.70;;
7150;SDS011;3617;48.836;9.172;2023-11-19T08:22:39;0.70;;;0.60;;
7150;SDS011;3617;48.836;9.172;2023-11-19T08:25:06;0.77;;;0.60;;
7150;SDS011;3617;48.836;9.172;2023-11-19T08:27:33;0.60;;;0.60;;
7150;SDS011;3617;48.836;9.172;2023-11-19T08:29:59;0.70;;;0.70;;
7150;SDS011;3617;48.836;9.172;2023-11-19T08:32:28;0.67;;;0.67;;
7150;SDS011;3617;48.836;9.172;2023-11-19T08:34:54;0.83;;;0.80;;
7150;SDS011;3617;48.836;9.172;2023-11-19T08:37:21;0.60;;;0.60;;
7150;SDS011;3617;48.836;9.172;2023-11-19T08:39:47;0.70;;;0.70;;
7150;SDS011;3617;48.836;9.172;2023-11-19T08:42:13;0.70;;;0.70;;
7150;SDS011;3617;48.836;9.172;2023-11-19T08:44:39;0.70;;;0.70;;
7150;SDS011;3617;48.836;9.172;2023-11-19T08:47:08;0.63;;;0.63;;
7150;SDS011;3617;48.836;9.172;2023-11-19T08:49:34;0.67;;;0.67;;
7150;SDS011;3617;48.836;9.172;2023-11-19T08:52:01;0.50;;;0.50;;
7150;SDS011;3617;48.836;9.172;2023-11-19T08:54:27;0.57;;;0.57;;
7150;SDS011;3617;48.836;9.172;2023-11-19T08:56:53;0.73;;;0.73;;
7150;SDS011;3617;48.836;9.172;2023-11-19T08:59:18;0.70;;;0.70;;
7150;SDS011;3617;48.836;9.172;2023-11-19T09:01:44;0.63;;;0.63;;
7150;SDS011;3617;48.836;9.172;2023-11-19T09:04:10;0.70;;;0.70;;
7150;SDS011;3617;48.836;9.172;2023-11-19T09:06:36;0.70;;;0.70;;
7150;SDS011;3617;48.836;9.172;2023-11-19T09:09:03;0.80;;;0.80;;
7150;SDS011;3617;48.836;9.172;2023-11-19T09:11:30;1.00;;;0.80;;
7150;SDS011;3617;48.836;9.172;2023-11-19T09:13:56;0.67;;;0.50;;
7150;SDS011;3617;48.836;9.172;2023-11-19T09:16:22;0.65;;;0.60;;
7150;SDS011;3617;48.836;9.172;2023-11-19T09:18:49;0.47;;;0.47;;
7150;SDS011;3617;48.836;9.172;2023-11-19T09:21:15;0.75;;;0.63;;
7150;SDS011;3617;48.836;9.172;2023-11-19T09:23:41;1.10;;;0.70;;
7150;SDS011;3617;48.836;9.172;2023-11-19T09:26:09;0.57;;;0.57;;
7150;SDS011;3617;48.836;9.172;2023-11-19T09:28:36;0.50;;;0.50;;
7150;SDS011;3617;48.836;9.172;2023-11-19T09:31:02;0.53;;;0.53;;
7150;SDS011;3617;48.836;9.172;2023-11-19T09:33:31;0.90;;;0.53;;
7150;SDS011;3617;48.836;9.172;2023-11-19T09:35:56;0.93;;;0.50;;
7150;SDS011;3617;48.836;9.172;2023-11-19T09:38:22;0.60;;;0.60;;
7150;SDS011;3617;48.836;9.172;2023-11-19T09:40:49;0.50;;;0.50;;
7150;SDS011;3617;48.836;9.172;2023-11-19T09:43:15;0.60;;;0.60;;
7150;SDS011;3617;48.836;9.172;2023-11-19T09:45:50;0.60;;;0.60;;
7150;SDS011;3617;48.836;9.172;2023-11-19T09:48:17;0.97;;;0.77;;
7150;SDS011;3617;48.836;9.172;2023-11-19T09:50:47;0.87;;;0.60;;
7150;SDS011;3617;48.836;9.172;2023-11-19T09:53:13;0.80;;;0.80;;
7150;SDS011;3617;48.836;9.172;2023-11-19T09:55:40;1.77;;;0.80;;
7150;SDS011;3617;48.836;9.172;2023-11-19T09:58:06;0.73;;;0.73;;
7150;SDS011;3617;48.836;9.172;2023-11-19T10:00:33;0.70;;;0.70;;
7150;SDS011;3617;48.836;9.172;2023-11-19T10:02:59;1.00;;;0.63;;
7150;SDS011;3617;48.836;9.172;2023-11-19T10:05:25;1.05;;;0.70;;
7150;SDS011;3617;48.836;9.172;2023-11-19T10:07:51;0.70;;;0.63;;
7150;SDS011;3617;48.836;9.172;2023-11-19T10:10:18;0.70;;;0.70;;
7150;SDS011;3617;48.836;9.172;2023-11-19T10:12:47;0.80;;;0.80;;
7150;SDS011;3617;48.836;9.172;2023-11-19T10:15:25;0.80;;;0.80;;
7150;SDS011;3617;48.836;9.172;2023-11-19T10:17:52;1.15;;;0.75;;
7150;SDS011;3617;48.836;9.172;2023-11-19T10:20:18;0.80;;;0.80;;
7150;SDS011;3617;48.836;9.172;2023-11-19T10:22:44;1.40;;;0.73;;
7150;SDS011;3617;48.836;9.172;2023-11-19T10:27:49;0.90;;;0.80;;
7150;SDS011;3617;48.836;9.172;2023-11-19T10:30:22;1.35;;;0.90;;
7150;SDS011;3617;48.836;9.172;2023-11-19T10:35:33;0.80;;;0.80;;
7150;SDS011;3617;48.836;9.172;2023-11-19T10:38:00;1.27;;;0.65;;
7150;SDS011;3617;48.836;9.172;2023-11-19T10:40:38;0.70;;;0.63;;
7150;SDS011;3617;48.836;9.172;2023-11-19T10:43:07;0.73;;;0.73;;
7150;SDS011;3617;48.836;9.172;2023-11-19T10:45:34;0.52;;;0.52;;
7150;SDS011;3617;48.836;9.172;2023-11-19T10:48:00;0.70;;;0.70;;
7150;SDS011;3617;48.836;9.172;2023-11-19T10:50:29;2.00;;;0.60;;
7150;SDS011;3617;48.836;9.172;2023-11-19T10:52:56;0.57;;;0.57;;
7150;SDS011;3617;48.836;9.172;2023-11-19T10:55:28;0.50;;;0.50;;
7150;SDS011;3617;48.836;9.172;2023-11-19T10:57:59;0.77;;;0.50;;
7150;SDS011;3617;48.836;9.172;2023-11-19T11:00:26;0.60;;;0.60;;
7150;SDS011;3617;48.836;9.172;2023-11-19T11:02:54;0.65;;;0.50;;
7150;SDS011;3617;48.836;9.172;2023-11-19T11:05:21;0.30;;;0.30;;
7150;SDS011;3617;48.836;9.172;2023-11-19T11:07:47;0.50;;;0.50;;
7150;SDS011;3617;48.836;9.172;2023-11-19T11:10:14;0.70;;;0.60;;
7150;SDS011;3617;48.836;9.172;2023-11-19T11:12:41;1.67;;;0.70;;
7150;SDS011;3617;48.836;9.172;2023-11-19T11:15:10;0.40;;;0.40;;
7150;SDS011;3617;48.836;9.172;2023-11-19T11:17:37;0.60;;;0.60;;
7150;SDS011;3617;48.836;9.172;2023-11-19T11:20:05;0.60;;;0.60;;
7150;SDS011;3617;48.836;9.172;2023-11-19T11:22:33;0.82;;;0.73;;
7150;SDS011;3617;48.836;9.172;2023-11-19T11:25:08;0.60;;;0.60;;
7150;SDS011;3617;48.836;9.172;2023-11-19T11:27:59;0.60;;;0.60;;
7150;SDS011;3617;48.836;9.172;2023-11-19T11:36:05;1.03;;;0.90;;
7150;SDS011;3617;48.836;9.172;2023-11-19T11:38:35;0.70;;;0.70;;
7150;SDS011;3617;48.836;9.172;2023-11-19T11:41:19;0.68;;;0.68;;
7150;SDS011;3617;48.836;9.172;2023-11-19T11:48:56;0.70;;;0.50;;
7150;SDS011;3617;48.836;9.172;2023-11-19T11:57:03;1.35;;;0.88;;
7150;SDS011;3617;48.836;9.172;2023-11-19T11:59:52;0.57;;;0.57;;
7150;SDS011;3617;48.836;9.172;2023-11-19T12:02:21;2.77;;;0.77;;
7150;SDS011;3617;48.836;9.172;2023-11-19T12:04:52;1.40;;;0.77;;
7150;SDS011;3617;48.836;9.172;2023-11-19T12:09:47;0.50;;;0.50;;
7150;SDS011;3617;48.836;9.172;2023-11-19T12:20:00;1.13;;;0.73;;
7150;SDS011;3617;48.836;9.172;2023-11-19T12:22:26;0.40;;;0.40;;
7150;SDS011;3617;48.836;9.172;2023-11-19T12:24:53;1.13;;;0.70;;
7150;SDS011;3617;48.836;9.172;2023-11-19T12:27:19;0.68;;;0.63;;
7150;SDS011;3617;48.836;9.172;2023-11-19T12:29:47;1.02;;;0.60;;
7150;SDS011;3617;48.836;9.172;2023-11-19T12:32:13;0.80;;;0.70;;
7150;SDS011;3617;48.836;9.172;2023-11-19T12:34:39;0.43;;;0.43;;
7150;SDS011;3617;48.836;9.172;2023-11-19T12:37:05;0.60;;;0.40;;
7150;SDS011;3617;48.836;9.172;2023-11-19T12:39:32;0.40;;;0.40;;
7150;SDS011;3617;48.836;9.172;2023-11-19T12:41:58;0.47;;;0.47;;
7150;SDS011;3617;48.836;9.172;2023-11-19T12:44:27;0.88;;;0.60;;
7150;SDS011;3617;48.836;9.172;2023-11-19T12:47:08;0.80;;;0.30;;
7150;SDS011;3617;48.836;9.172;2023-11-19T12:49:36;0.65;;;0.60;;
7150;SDS011;3617;48.836;9.172;2023-11-19T12:52:02;1.05;;;0.40;;
7150;SDS011;3617;48.836;9.172;2023-11-19T12:54:37;0.73;;;0.47;;
7150;SDS011;3617;48.836;9.172;2023-11-19T12:57:04;0.43;;;0.43;;
7150;SDS011;3617;48.836;9.172;2023-11-19T12:59:30;1.55;;;0.40;;
7150;SDS011;3617;48.836;9.172;2023-11-19T13:01:59;0.75;;;0.50;;
7150;SDS011;3617;48.836;9.172;2023-11-19T13:04:30;1.75;;;0.52;;
7150;SDS011;3617;48.836;9.172;2023-11-19T13:06:57;0.45;;;0.45;;
7150;SDS011;3617;48.836;9.172;2023-11-19T13:09:26;1.35;;;0.70;;
7150;SDS011;3617;48.836;9.172;2023-11-19T13:11:53;1.15;;;0.63;;
7150;SDS011;3617;48.836;9.172;2023-11-19T13:14:20;0.50;;;0.50;;
7150;SDS011;3617;48.836;9.172;2023-11-19T13:16:46;0.63;;;0.63;;
7150;SDS011;3617;48.836;9.172;2023-11-19T13:19:12;0.60;;;0.60;;
7150;SDS011;3617;48.836;9.172;2023-11-19T13:21:38;1.02;;;0.85;;
7150;SDS011;3617;48.836;9.172;2023-11-19T13:24:07;0.45;;;0.45;;
7150;SDS011;3617;48.836;9.172;2023-11-19T13:26:34;0.60;;;0.60;;
7150;SDS011;3617;48.836;9.172;2023-11-19T13:29:00;0.50;;;0.50;;
7150;SDS011;3617;48.836;9.172;2023-11-19T13:31:26;0.65;;;0.60;;
7150;SDS011;3617;48.836;9.172;2023-11-19T13:33:52;0.95;;;0.60;;
7150;SDS011;3617;48.836;9.172;2023-11-19T13:36:18;0.60;;;0.60;;
7150;SDS011;3617;48.836;9.172;2023-11-19T13:38:44;1.75;;;0.80;;
7150;SDS011;3617;48.836;9.172;2023-11-19T13:41:11;2.00;;;0.93;;
7150;SDS011;3617;48.836;9.172;2023-11-19T13:43:38;0.53;;;0.53;;
7150;SDS011;3617;48.836;9.172;2023-11-19T13:46:04;0.90;;;0.70;;
7150;SDS011;3617;48.836;9.172;2023-11-19T13:48:31;0.50;;;0.50;;
7150;SDS011;3617;48.836;9.172;2023-11-19T13:50:57;1.17;;;0.73;;
7150;SDS011;3617;48.836;9.172;2023-11-19T13:53:23;0.80;;;0.77;;
7150;SDS011;3617;48.836;9.172;2023-11-19T13:55:49;0.67;;;0.67;;
7150;SDS011;3617;48.836;9.172;2023-11-19T13:58:15;1.37;;;0.70;;
7150;SDS011;3617;48.836;9.172;2023-11-19T14:00:41;1.40;;;0.63;;
7150;SDS011;3617;48.836;9.172;2023-11-19T14:03:08;0.70;;;0.70;;
7150;SDS011;3617;48.836;9.172;2023-11-19T14:05:37;1.33;;;0.63;;
7150;SDS011;3617;48.836;9.172;2023-11-19T14:08:04;0.50;;;0.50;;
7150;SDS011;3617;48.836;9.172;2023-11-19T14:10:36;0.57;;;0.57;;
7150;SDS011;3617;48.836;9.172;2023-11-19T14:13:04;0.50;;;0.50;;
7150;SDS011;3617;48.836;9.172;2023-11-19T14:15:30;1.43;;;0.93;;
7150;SDS011;3617;48.836;9.172;2023-11-19T14:17:56;0.67;;;0.67;;
7150;SDS011;3617;48.836;9.172;2023-11-19T14:20:22;1.43;;;0.60;;
7150;SDS011;3617;48.836;9.172;2023-11-19T14:22:48;0.70;;;0.70;;
7150;SDS011;3617;48.836;9.172;2023-11-19T14:25:15;0.60;;;0.60;;
7150;SDS011;3617;48.836;9.172;2023-11-19T14:27:42;0.70;;;0.70;;
7150;SDS011;3617;48.836;9.172;2023-11-19T14:30:09;0.90;;;0.70;;
7150;SDS011;3617;48.836;9.172;2023-11-19T14:32:39;0.67;;;0.60;;
7150;SDS011;3617;48.836;9.172;2023-11-19T14:35:05;0.60;;;0.60;;
7150;SDS011;3617;48.836;9.172;2023-11-19T14:37:32;0.53;;;0.53;;
7150;SDS011;3617;48.836;9.172;2023-11-19T14:39:58;1.03;;;0.80;;
7150;SDS011;3617;48.836;9.172;2023-11-19T14:42:24;0.60;;;0.60;;
7150;SDS011;3617;48.836;9.172;2023-11-19T14:44:54;0.70;;;0.70;;
7150;SDS011;3617;48.836;9.172;2023-11-19T14:47:22;0.80;;;0.80;;
7150;SDS011;3617;48.836;9.172;2023-11-19T14:49:48;0.70;;;0.70;;
7150;SDS011;3617;48.836;9.172;2023-11-19T14:52:14;1.10;;;0.90;;
7150;SDS011;3617;48.836;9.172;2023-11-19T14:54:40;1.17;;;0.73;;
7150;SDS011;3617;48.836;9.172;2023-11-19T14:57:07;0.80;;;0.80;;
7150;SDS011;3617;48.836;9.172;2023-11-19T14:59:33;1.10;;;0.73;;
7150;SDS011;3617;48.836;9.172;2023-11-19T15:01:59;0.70;;;0.70;;
7150;SDS011;3617;48.836;9.172;2023-11-19T15:04:29;0.77;;;0.77;;
7150;SDS011;3617;48.836;9.172;2023-11-19T15:06:58;1.10;;;0.90;;
7150;SDS011;3617;48.836;9.172;2023-11-19T15:09:25;0.67;;;0.67;;
7150;SDS011;3617;48.836;9.172;2023-11-19T15:11:54;0.80;;;0.70;;
7150;SDS011;3617;48.836;9.172;2023-11-19T15:14:20;0.60;;;0.60;;
7150;SDS011;3617;48.836;9.172;2023-11-19T15:16:46;1.20;;;0.77;;
7150;SDS011;3617;48.836;9.172;2023-11-19T15:19:14;0.60;;;0.60;;
7150;SDS011;3617;48.836;9.172;2023-11-19T15:21:43;0.70;;;0.70;;
7150;SDS011;3617;48.836;9.172;2023-11-19T15:24:09;1.17;;;0.60;;
7150;SDS011;3617;48.836;9.172;2023-11-19T15:26:36;0.60;;;0.60;;
7150;SDS011;3617;48.836;9.172;2023-11-19T15:29:02;0.90;;;0.60;;
7150;SDS011;3617;48.836;9.172;2023-11-19T15:31:29;0.70;;;0.70;;
7150;SDS011;3617;48.836;9.172;2023-11-19T15:33:55;1.80;;;0.60;;
7150;SDS011;3617;48.836;9.172;2023-11-19T15:36:21;1.50;;;0.80;;
7150;SDS011;3617;48.836;9.172;2023-11-19T15:38:47;0.70;;;0.60;;
7150;SDS011;3617;48.836;9.172;2023-11-19T15:41:13;0.90;;;0.90;;
7150;SDS011;3617;48.836;9.172;2023-11-19T15:43:39;0.93;;;0.80;;
7150;SDS011;3617;48.836;9.172;2023-11-19T15:46:09;1.03;;;0.80;;
7150;SDS011;3617;48.836;9.172;2023-11-19T15:48:35;0.70;;;0.70;;